Figueras, Spain
Current Conditions -  °F | °C
As of 10:30 AM on Friday 28 Nov 2014 (Local Time) from LEGE Reporting Station
Scattered Clouds Scattered Clouds  
Wind Chill: 63°   Ceiling: Unl
Heat Index: 63°   Visibility: 6mi
Dew Point: 59°   Wind: 9mph
Humidity: 88%   Direction: 200°SSW
Pressure: 29.41"   Gusts: NA
Location:  42.27°N, 2.96°E
Report Text: LEGE 280930Z 20008KT 170V230 9999 FEW020CB SCT035 17/15 Q0996
Loading
Personal Weather Stations






























Interactive Weather Map New forecast layout! Learn more

10-Day Weather Forecast

Advertisements
Track Severe Weather on mobile